sensor_id;sensor_type;location;lat;lon;timestamp;P1;durP1;ratioP1;P2;durP2;ratioP2
76854;SDS011;66343;44.588;33.450;2023-06-22T00:01:08;13.77;;;7.93;;
76854;SDS011;66343;44.588;33.450;2023-06-22T00:03:39;12.77;;;8.10;;
76854;SDS011;66343;44.588;33.450;2023-06-22T00:06:12;13.48;;;7.30;;
76854;SDS011;66343;44.588;33.450;2023-06-22T00:08:41;15.88;;;8.32;;
76854;SDS011;66343;44.588;33.450;2023-06-22T00:11:16;13.25;;;7.97;;
76854;SDS011;66343;44.588;33.450;2023-06-22T00:13:48;13.40;;;7.57;;
76854;SDS011;66343;44.588;33.450;2023-06-22T00:16:19;14.88;;;8.02;;
76854;SDS011;66343;44.588;33.450;2023-06-22T00:18:53;14.07;;;8.15;;
76854;SDS011;66343;44.588;33.450;2023-06-22T00:21:28;21.98;;;9.38;;
76854;SDS011;66343;44.588;33.450;2023-06-22T00:24:01;20.50;;;10.48;;
76854;SDS011;66343;44.588;33.450;2023-06-22T00:26:34;17.80;;;9.18;;
76854;SDS011;66343;44.588;33.450;2023-06-22T00:29:09;17.27;;;8.95;;
76854;SDS011;66343;44.588;33.450;2023-06-22T00:31:39;14.05;;;8.85;;
76854;SDS011;66343;44.588;33.450;2023-06-22T00:34:15;12.60;;;8.45;;
76854;SDS011;66343;44.588;33.450;2023-06-22T00:36:48;16.75;;;9.68;;
76854;SDS011;66343;44.588;33.450;2023-06-22T00:39:19;16.42;;;9.27;;
76854;SDS011;66343;44.588;33.450;2023-06-22T00:41:50;15.50;;;9.50;;
76854;SDS011;66343;44.588;33.450;2023-06-22T00:44:22;18.13;;;9.45;;
76854;SDS011;66343;44.588;33.450;2023-06-22T00:46:52;15.20;;;9.00;;
76854;SDS011;66343;44.588;33.450;2023-06-22T00:49:24;17.17;;;9.52;;
76854;SDS011;66343;44.588;33.450;2023-06-22T00:51:54;15.68;;;8.93;;
76854;SDS011;66343;44.588;33.450;2023-06-22T00:54:27;14.90;;;9.68;;
76854;SDS011;66343;44.588;33.450;2023-06-22T00:57:03;15.65;;;9.60;;
76854;SDS011;66343;44.588;33.450;2023-06-22T00:59:40;14.93;;;9.13;;
76854;SDS011;66343;44.588;33.450;2023-06-22T01:02:13;15.48;;;9.38;;
76854;SDS011;66343;44.588;33.450;2023-06-22T01:04:47;14.77;;;9.40;;
76854;SDS011;66343;44.588;33.450;2023-06-22T01:07:27;15.98;;;9.85;;
76854;SDS011;66343;44.588;33.450;2023-06-22T01:13:07;13.65;;;9.10;;
76854;SDS011;66343;44.588;33.450;2023-06-22T01:15:43;13.02;;;8.90;;
76854;SDS011;66343;44.588;33.450;2023-06-22T01:18:30;15.45;;;8.77;;
76854;SDS011;66343;44.588;33.450;2023-06-22T01:21:07;16.73;;;9.93;;
76854;SDS011;66343;44.588;33.450;2023-06-22T01:26:58;18.05;;;9.75;;
76854;SDS011;66343;44.588;33.450;2023-06-22T01:29:51;15.07;;;8.90;;
76854;SDS011;66343;44.588;33.450;2023-06-22T01:32:30;15.73;;;9.57;;
76854;SDS011;66343;44.588;33.450;2023-06-22T01:35:03;16.33;;;9.63;;
76854;SDS011;66343;44.588;33.450;2023-06-22T01:37:39;15.27;;;8.93;;
76854;SDS011;66343;44.588;33.450;2023-06-22T01:40:09;15.25;;;10.50;;
76854;SDS011;66343;44.588;33.450;2023-06-22T01:42:41;15.98;;;9.63;;
76854;SDS011;66343;44.588;33.450;2023-06-22T01:45:19;14.05;;;8.90;;
76854;SDS011;66343;44.588;33.450;2023-06-22T01:47:51;14.95;;;8.82;;
76854;SDS011;66343;44.588;33.450;2023-06-22T01:50:23;14.15;;;9.13;;
76854;SDS011;66343;44.588;33.450;2023-06-22T01:52:55;14.98;;;9.07;;
76854;SDS011;66343;44.588;33.450;2023-06-22T01:55:28;14.10;;;9.80;;
76854;SDS011;66343;44.588;33.450;2023-06-22T01:58:00;14.00;;;9.27;;
76854;SDS011;66343;44.588;33.450;2023-06-22T02:03:08;15.15;;;8.20;;
76854;SDS011;66343;44.588;33.450;2023-06-22T02:05:43;14.27;;;9.30;;
76854;SDS011;66343;44.588;33.450;2023-06-22T02:08:23;12.93;;;8.43;;
76854;SDS011;66343;44.588;33.450;2023-06-22T02:10:59;15.32;;;8.70;;
76854;SDS011;66343;44.588;33.450;2023-06-22T02:13:33;13.65;;;9.52;;
76854;SDS011;66343;44.588;33.450;2023-06-22T02:16:04;13.02;;;8.75;;
76854;SDS011;66343;44.588;33.450;2023-06-22T02:18:36;17.27;;;9.73;;
76854;SDS011;66343;44.588;33.450;2023-06-22T02:21:17;14.88;;;9.43;;
76854;SDS011;66343;44.588;33.450;2023-06-22T02:23:55;14.45;;;8.85;;
76854;SDS011;66343;44.588;33.450;2023-06-22T02:26:25;13.73;;;9.13;;
76854;SDS011;66343;44.588;33.450;2023-06-22T02:28:55;14.45;;;9.63;;
76854;SDS011;66343;44.588;33.450;2023-06-22T02:31:27;13.88;;;8.65;;
76854;SDS011;66343;44.588;33.450;2023-06-22T02:33:59;14.23;;;7.90;;
76854;SDS011;66343;44.588;33.450;2023-06-22T02:36:31;15.35;;;8.95;;
76854;SDS011;66343;44.588;33.450;2023-06-22T02:39:04;13.82;;;8.00;;
76854;SDS011;66343;44.588;33.450;2023-06-22T02:41:36;13.73;;;8.73;;
76854;SDS011;66343;44.588;33.450;2023-06-22T02:44:08;13.18;;;8.50;;
76854;SDS011;66343;44.588;33.450;2023-06-22T02:46:39;12.85;;;8.10;;
76854;SDS011;66343;44.588;33.450;2023-06-22T02:49:09;12.25;;;7.50;;
76854;SDS011;66343;44.588;33.450;2023-06-22T02:51:41;12.15;;;7.75;;
76854;SDS011;66343;44.588;33.450;2023-06-22T02:54:17;12.30;;;8.15;;
76854;SDS011;66343;44.588;33.450;2023-06-22T02:56:50;13.35;;;7.78;;
76854;SDS011;66343;44.588;33.450;2023-06-22T02:59:23;13.35;;;7.47;;
76854;SDS011;66343;44.588;33.450;2023-06-22T03:02:01;12.43;;;8.65;;
76854;SDS011;66343;44.588;33.450;2023-06-22T03:04:36;11.82;;;7.88;;
76854;SDS011;66343;44.588;33.450;2023-06-22T03:07:10;12.70;;;7.13;;
76854;SDS011;66343;44.588;33.450;2023-06-22T03:12:11;12.10;;;7.38;;
76854;SDS011;66343;44.588;33.450;2023-06-22T03:14:52;11.63;;;7.13;;
76854;SDS011;66343;44.588;33.450;2023-06-22T03:17:24;12.23;;;7.45;;
76854;SDS011;66343;44.588;33.450;2023-06-22T03:19:53;17.15;;;8.18;;
76854;SDS011;66343;44.588;33.450;2023-06-22T03:22:28;14.32;;;7.88;;
76854;SDS011;66343;44.588;33.450;2023-06-22T03:24:57;14.95;;;7.53;;
76854;SDS011;66343;44.588;33.450;2023-06-22T03:27:27;13.05;;;8.10;;
76854;SDS011;66343;44.588;33.450;2023-06-22T03:29:57;14.50;;;7.90;;
76854;SDS011;66343;44.588;33.450;2023-06-22T03:32:35;12.68;;;7.97;;
76854;SDS011;66343;44.588;33.450;2023-06-22T03:35:09;13.20;;;7.75;;
76854;SDS011;66343;44.588;33.450;2023-06-22T03:37:42;11.02;;;6.53;;
76854;SDS011;66343;44.588;33.450;2023-06-22T03:40:15;11.68;;;7.03;;
76854;SDS011;66343;44.588;33.450;2023-06-22T03:42:47;12.57;;;6.88;;
76854;SDS011;66343;44.588;33.450;2023-06-22T03:45:16;15.05;;;7.57;;
76854;SDS011;66343;44.588;33.450;2023-06-22T03:50:23;11.60;;;6.88;;
76854;SDS011;66343;44.588;33.450;2023-06-22T03:52:53;13.23;;;6.75;;
76854;SDS011;66343;44.588;33.450;2023-06-22T03:55:25;12.90;;;7.40;;
76854;SDS011;66343;44.588;33.450;2023-06-22T03:57:59;13.10;;;7.25;;
76854;SDS011;66343;44.588;33.450;2023-06-22T04:00:34;13.73;;;6.95;;
76854;SDS011;66343;44.588;33.450;2023-06-22T04:03:04;11.00;;;6.13;;
76854;SDS011;66343;44.588;33.450;2023-06-22T04:05:39;14.23;;;6.65;;
76854;SDS011;66343;44.588;33.450;2023-06-22T04:08:16;12.70;;;7.15;;
76854;SDS011;66343;44.588;33.450;2023-06-22T04:10:45;13.07;;;7.15;;
76854;SDS011;66343;44.588;33.450;2023-06-22T04:13:14;12.43;;;7.03;;
76854;SDS011;66343;44.588;33.450;2023-06-22T04:15:44;11.18;;;6.60;;
76854;SDS011;66343;44.588;33.450;2023-06-22T04:18:13;12.93;;;6.63;;
76854;SDS011;66343;44.588;33.450;2023-06-22T04:20:44;11.10;;;6.22;;
76854;SDS011;66343;44.588;33.450;2023-06-22T04:25:46;14.50;;;6.40;;
76854;SDS011;66343;44.588;33.450;2023-06-22T04:28:15;11.20;;;5.80;;
76854;SDS011;66343;44.588;33.450;2023-06-22T04:30:46;10.40;;;5.88;;
76854;SDS011;66343;44.588;33.450;2023-06-22T04:35:49;14.60;;;6.18;;
76854;SDS011;66343;44.588;33.450;2023-06-22T04:38:28;14.55;;;5.30;;
76854;SDS011;66343;44.588;33.450;2023-06-22T04:40:58;10.55;;;5.60;;
76854;SDS011;66343;44.588;33.450;2023-06-22T04:43:29;13.00;;;6.65;;
76854;SDS011;66343;44.588;33.450;2023-06-22T04:46:03;13.10;;;6.30;;
76854;SDS011;66343;44.588;33.450;2023-06-22T04:48:38;11.35;;;5.70;;
76854;SDS011;66343;44.588;33.450;2023-06-22T04:51:10;9.18;;;5.40;;
76854;SDS011;66343;44.588;33.450;2023-06-22T04:53:42;14.50;;;6.30;;
76854;SDS011;66343;44.588;33.450;2023-06-22T04:56:18;12.18;;;5.95;;
76854;SDS011;66343;44.588;33.450;2023-06-22T04:58:52;12.82;;;6.30;;
76854;SDS011;66343;44.588;33.450;2023-06-22T05:01:32;13.25;;;6.35;;
76854;SDS011;66343;44.588;33.450;2023-06-22T05:04:03;15.52;;;6.80;;
76854;SDS011;66343;44.588;33.450;2023-06-22T05:06:37;13.85;;;5.68;;
76854;SDS011;66343;44.588;33.450;2023-06-22T05:09:10;12.45;;;6.35;;
76854;SDS011;66343;44.588;33.450;2023-06-22T05:11:43;13.05;;;7.22;;
76854;SDS011;66343;44.588;33.450;2023-06-22T05:14:17;12.18;;;6.05;;
76854;SDS011;66343;44.588;33.450;2023-06-22T05:16:48;13.07;;;6.68;;
76854;SDS011;66343;44.588;33.450;2023-06-22T05:19:20;13.85;;;6.25;;
76854;SDS011;66343;44.588;33.450;2023-06-22T05:21:52;12.75;;;6.28;;
76854;SDS011;66343;44.588;33.450;2023-06-22T05:24:22;11.77;;;6.40;;
76854;SDS011;66343;44.588;33.450;2023-06-22T05:26:55;13.32;;;5.95;;
76854;SDS011;66343;44.588;33.450;2023-06-22T05:29:27;10.77;;;6.05;;
76854;SDS011;66343;44.588;33.450;2023-06-22T05:31:59;11.27;;;6.22;;
76854;SDS011;66343;44.588;33.450;2023-06-22T05:34:31;12.20;;;5.88;;
76854;SDS011;66343;44.588;33.450;2023-06-22T05:37:07;12.25;;;6.35;;
76854;SDS011;66343;44.588;33.450;2023-06-22T05:39:43;14.70;;;6.20;;
76854;SDS011;66343;44.588;33.450;2023-06-22T05:42:15;11.68;;;5.70;;
76854;SDS011;66343;44.588;33.450;2023-06-22T05:44:47;11.65;;;5.53;;
76854;SDS011;66343;44.588;33.450;2023-06-22T05:47:16;10.50;;;5.70;;
76854;SDS011;66343;44.588;33.450;2023-06-22T05:49:46;12.45;;;6.07;;
76854;SDS011;66343;44.588;33.450;2023-06-22T05:52:15;10.02;;;5.55;;
76854;SDS011;66343;44.588;33.450;2023-06-22T05:54:52;12.75;;;5.97;;
76854;SDS011;66343;44.588;33.450;2023-06-22T05:57:27;12.07;;;6.30;;
76854;SDS011;66343;44.588;33.450;2023-06-22T05:59:57;12.20;;;5.95;;
76854;SDS011;66343;44.588;33.450;2023-06-22T06:02:27;11.20;;;6.07;;
76854;SDS011;66343;44.588;33.450;2023-06-22T06:04:56;11.80;;;5.82;;
76854;SDS011;66343;44.588;33.450;2023-06-22T06:07:34;11.05;;;6.18;;
76854;SDS011;66343;44.588;33.450;2023-06-22T06:10:09;12.65;;;6.78;;
76854;SDS011;66343;44.588;33.450;2023-06-22T06:12:41;15.20;;;6.57;;
76854;SDS011;66343;44.588;33.450;2023-06-22T06:15:16;13.82;;;6.15;;
76854;SDS011;66343;44.588;33.450;2023-06-22T06:17:46;11.15;;;5.95;;
76854;SDS011;66343;44.588;33.450;2023-06-22T06:20:28;10.88;;;6.05;;
76854;SDS011;66343;44.588;33.450;2023-06-22T06:23:03;15.25;;;6.30;;
76854;SDS011;66343;44.588;33.450;2023-06-22T06:25:38;12.40;;;6.45;;
76854;SDS011;66343;44.588;33.450;2023-06-22T06:28:09;11.93;;;6.15;;
76854;SDS011;66343;44.588;33.450;2023-06-22T06:30:42;13.15;;;6.40;;
76854;SDS011;66343;44.588;33.450;2023-06-22T06:33:12;11.85;;;6.15;;
76854;SDS011;66343;44.588;33.450;2023-06-22T06:35:46;12.57;;;6.68;;
76854;SDS011;66343;44.588;33.450;2023-06-22T06:38:16;11.63;;;6.93;;
76854;SDS011;66343;44.588;33.450;2023-06-22T06:40:48;11.55;;;6.68;;
76854;SDS011;66343;44.588;33.450;2023-06-22T06:43:21;16.02;;;7.03;;
76854;SDS011;66343;44.588;33.450;2023-06-22T06:45:54;11.68;;;6.28;;
76854;SDS011;66343;44.588;33.450;2023-06-22T06:48:27;14.18;;;7.10;;
76854;SDS011;66343;44.588;33.450;2023-06-22T06:50:57;13.10;;;6.80;;
76854;SDS011;66343;44.588;33.450;2023-06-22T06:53:30;12.60;;;6.60;;
76854;SDS011;66343;44.588;33.450;2023-06-22T06:56:05;12.80;;;6.85;;
76854;SDS011;66343;44.588;33.450;2023-06-22T06:58:44;14.75;;;6.15;;
76854;SDS011;66343;44.588;33.450;2023-06-22T07:01:17;12.07;;;7.40;;
76854;SDS011;66343;44.588;33.450;2023-06-22T07:03:49;15.45;;;7.30;;
76854;SDS011;66343;44.588;33.450;2023-06-22T07:06:24;11.95;;;6.57;;
76854;SDS011;66343;44.588;33.450;2023-06-22T07:09:01;12.32;;;7.28;;
76854;SDS011;66343;44.588;33.450;2023-06-22T07:11:31;14.10;;;7.72;;
76854;SDS011;66343;44.588;33.450;2023-06-22T07:14:03;12.35;;;6.82;;
76854;SDS011;66343;44.588;33.450;2023-06-22T07:16:33;12.25;;;6.55;;
76854;SDS011;66343;44.588;33.450;2023-06-22T07:19:02;11.73;;;7.07;;
76854;SDS011;66343;44.588;33.450;2023-06-22T07:21:31;12.68;;;6.80;;
76854;SDS011;66343;44.588;33.450;2023-06-22T07:24:00;12.60;;;7.50;;
76854;SDS011;66343;44.588;33.450;2023-06-22T07:26:30;13.32;;;7.57;;
76854;SDS011;66343;44.588;33.450;2023-06-22T07:29:01;13.13;;;6.93;;
76854;SDS011;66343;44.588;33.450;2023-06-22T07:31:30;12.88;;;7.35;;
76854;SDS011;66343;44.588;33.450;2023-06-22T07:33:59;11.55;;;7.00;;
76854;SDS011;66343;44.588;33.450;2023-06-22T07:36:29;14.32;;;7.25;;
76854;SDS011;66343;44.588;33.450;2023-06-22T07:39:02;12.65;;;7.03;;
76854;SDS011;66343;44.588;33.450;2023-06-22T07:41:32;12.20;;;6.90;;
76854;SDS011;66343;44.588;33.450;2023-06-22T07:44:04;12.27;;;7.15;;
76854;SDS011;66343;44.588;33.450;2023-06-22T07:46:37;16.80;;;7.28;;
76854;SDS011;66343;44.588;33.450;2023-06-22T07:49:06;13.63;;;7.10;;
76854;SDS011;66343;44.588;33.450;2023-06-22T07:51:36;12.32;;;6.35;;
76854;SDS011;66343;44.588;33.450;2023-06-22T07:54:06;18.73;;;7.78;;
76854;SDS011;66343;44.588;33.450;2023-06-22T07:56:36;12.38;;;7.00;;
76854;SDS011;66343;44.588;33.450;2023-06-22T07:59:05;12.02;;;6.90;;
76854;SDS011;66343;44.588;33.450;2023-06-22T08:01:38;9.55;;;6.05;;
76854;SDS011;66343;44.588;33.450;2023-06-22T08:04:08;12.23;;;6.32;;
76854;SDS011;66343;44.588;33.450;2023-06-22T08:06:37;11.20;;;7.20;;
76854;SDS011;66343;44.588;33.450;2023-06-22T08:09:06;13.23;;;7.32;;
76854;SDS011;66343;44.588;33.450;2023-06-22T08:11:38;12.13;;;7.05;;
76854;SDS011;66343;44.588;33.450;2023-06-22T08:14:07;12.27;;;7.10;;
76854;SDS011;66343;44.588;33.450;2023-06-22T08:16:37;12.48;;;6.72;;
76854;SDS011;66343;44.588;33.450;2023-06-22T08:19:06;13.70;;;6.85;;
76854;SDS011;66343;44.588;33.450;2023-06-22T08:21:35;12.32;;;6.60;;
76854;SDS011;66343;44.588;33.450;2023-06-22T08:24:04;11.20;;;6.90;;
76854;SDS011;66343;44.588;33.450;2023-06-22T08:26:33;12.57;;;6.85;;
76854;SDS011;66343;44.588;33.450;2023-06-22T08:29:05;13.48;;;6.68;;
76854;SDS011;66343;44.588;33.450;2023-06-22T08:31:34;13.07;;;7.22;;
76854;SDS011;66343;44.588;33.450;2023-06-22T08:34:06;12.52;;;7.07;;
76854;SDS011;66343;44.588;33.450;2023-06-22T08:36:36;11.57;;;5.82;;
76854;SDS011;66343;44.588;33.450;2023-06-22T08:39:10;12.52;;;6.57;;
76854;SDS011;66343;44.588;33.450;2023-06-22T08:41:39;14.52;;;6.47;;
76854;SDS011;66343;44.588;33.450;2023-06-22T08:44:08;11.60;;;5.68;;
76854;SDS011;66343;44.588;33.450;2023-06-22T08:46:37;11.70;;;6.82;;
76854;SDS011;66343;44.588;33.450;2023-06-22T08:49:08;12.65;;;7.05;;
76854;SDS011;66343;44.588;33.450;2023-06-22T08:51:38;11.15;;;6.55;;
76854;SDS011;66343;44.588;33.450;2023-06-22T08:54:12;11.35;;;5.90;;
76854;SDS011;66343;44.588;33.450;2023-06-22T08:56:42;12.93;;;6.68;;
76854;SDS011;66343;44.588;33.450;2023-06-22T08:59:15;11.98;;;5.93;;
76854;SDS011;66343;44.588;33.450;2023-06-22T09:01:46;10.15;;;5.22;;
76854;SDS011;66343;44.588;33.450;2023-06-22T09:04:19;9.88;;;5.03;;
76854;SDS011;66343;44.588;33.450;2023-06-22T09:06:52;9.60;;;5.07;;
76854;SDS011;66343;44.588;33.450;2023-06-22T09:09:21;10.43;;;5.30;;
76854;SDS011;66343;44.588;33.450;2023-06-22T09:11:51;10.30;;;4.95;;
76854;SDS011;66343;44.588;33.450;2023-06-22T09:14:20;9.32;;;5.30;;
76854;SDS011;66343;44.588;33.450;2023-06-22T09:16:49;11.93;;;5.60;;
76854;SDS011;66343;44.588;33.450;2023-06-22T09:19:18;10.30;;;5.35;;
76854;SDS011;66343;44.588;33.450;2023-06-22T09:21:47;9.85;;;4.68;;
76854;SDS011;66343;44.588;33.450;2023-06-22T09:24:17;9.80;;;5.00;;
76854;SDS011;66343;44.588;33.450;2023-06-22T09:26:46;9.10;;;4.80;;
76854;SDS011;66343;44.588;33.450;2023-06-22T09:29:15;8.82;;;4.70;;
76854;SDS011;66343;44.588;33.450;2023-06-22T09:31:44;9.35;;;4.75;;
76854;SDS011;66343;44.588;33.450;2023-06-22T09:34:14;9.82;;;4.72;;
76854;SDS011;66343;44.588;33.450;2023-06-22T09:36:48;10.18;;;5.22;;
76854;SDS011;66343;44.588;33.450;2023-06-22T09:39:18;10.50;;;5.05;;
76854;SDS011;66343;44.588;33.450;2023-06-22T09:41:47;11.65;;;5.30;;
76854;SDS011;66343;44.588;33.450;2023-06-22T09:44:16;10.88;;;5.30;;
76854;SDS011;66343;44.588;33.450;2023-06-22T09:46:45;12.77;;;6.00;;
76854;SDS011;66343;44.588;33.450;2023-06-22T09:49:14;12.18;;;5.10;;
76854;SDS011;66343;44.588;33.450;2023-06-22T09:51:43;12.88;;;5.72;;
76854;SDS011;66343;44.588;33.450;2023-06-22T09:54:12;15.02;;;5.57;;
76854;SDS011;66343;44.588;33.450;2023-06-22T09:56:44;11.55;;;5.20;;
76854;SDS011;66343;44.588;33.450;2023-06-22T09:59:13;12.32;;;5.50;;
76854;SDS011;66343;44.588;33.450;2023-06-22T10:01:45;13.70;;;5.75;;
76854;SDS011;66343;44.588;33.450;2023-06-22T10:04:15;10.82;;;5.70;;
76854;SDS011;66343;44.588;33.450;2023-06-22T10:06:44;11.10;;;5.82;;
76854;SDS011;66343;44.588;33.450;2023-06-22T10:09:14;11.32;;;5.68;;
76854;SDS011;66343;44.588;33.450;2023-06-22T10:11:43;14.23;;;5.85;;
76854;SDS011;66343;44.588;33.450;2023-06-22T10:14:15;10.90;;;5.72;;
76854;SDS011;66343;44.588;33.450;2023-06-22T10:16:45;12.00;;;5.28;;
76854;SDS011;66343;44.588;33.450;2023-06-22T10:19:14;9.93;;;5.28;;
76854;SDS011;66343;44.588;33.450;2023-06-22T10:21:44;10.43;;;5.05;;
76854;SDS011;66343;44.588;33.450;2023-06-22T10:24:16;10.80;;;5.25;;
76854;SDS011;66343;44.588;33.450;2023-06-22T10:26:46;10.63;;;5.10;;
76854;SDS011;66343;44.588;33.450;2023-06-22T10:29:15;10.65;;;5.53;;
76854;SDS011;66343;44.588;33.450;2023-06-22T10:31:44;9.68;;;5.55;;
76854;SDS011;66343;44.588;33.450;2023-06-22T10:34:16;9.98;;;5.50;;
76854;SDS011;66343;44.588;33.450;2023-06-22T10:36:50;9.73;;;5.07;;
76854;SDS011;66343;44.588;33.450;2023-06-22T10:39:20;9.60;;;5.55;;
76854;SDS011;66343;44.588;33.450;2023-06-22T10:41:50;14.55;;;4.88;;
76854;SDS011;66343;44.588;33.450;2023-06-22T10:44:19;10.82;;;4.53;;
76854;SDS011;66343;44.588;33.450;2023-06-22T10:46:51;10.27;;;4.65;;
76854;SDS011;66343;44.588;33.450;2023-06-22T10:49:20;10.75;;;4.78;;
76854;SDS011;66343;44.588;33.450;2023-06-22T10:51:50;9.75;;;4.65;;
76854;SDS011;66343;44.588;33.450;2023-06-22T10:54:19;10.77;;;4.50;;
76854;SDS011;66343;44.588;33.450;2023-06-22T10:56:48;12.98;;;5.38;;
76854;SDS011;66343;44.588;33.450;2023-06-22T10:59:22;10.40;;;4.88;;
76854;SDS011;66343;44.588;33.450;2023-06-22T11:01:59;11.98;;;4.88;;
76854;SDS011;66343;44.588;33.450;2023-06-22T11:04:29;10.30;;;4.60;;
76854;SDS011;66343;44.588;33.450;2023-06-22T11:06:59;10.50;;;4.43;;
76854;SDS011;66343;44.588;33.450;2023-06-22T11:09:28;8.77;;;4.68;;
76854;SDS011;66343;44.588;33.450;2023-06-22T11:12:00;8.60;;;4.57;;
76854;SDS011;66343;44.588;33.450;2023-06-22T11:14:32;11.10;;;4.68;;
76854;SDS011;66343;44.588;33.450;2023-06-22T11:17:07;16.50;;;4.80;;
76854;SDS011;66343;44.588;33.450;2023-06-22T11:19:36;12.13;;;4.90;;
76854;SDS011;66343;44.588;33.450;2023-06-22T11:22:05;10.50;;;4.75;;
76854;SDS011;66343;44.588;33.450;2023-06-22T11:24:34;10.73;;;4.90;;
76854;SDS011;66343;44.588;33.450;2023-06-22T11:27:11;10.05;;;4.30;;
76854;SDS011;66343;44.588;33.450;2023-06-22T11:29:41;10.95;;;4.10;;
76854;SDS011;66343;44.588;33.450;2023-06-22T11:32:10;9.50;;;4.20;;
76854;SDS011;66343;44.588;33.450;2023-06-22T11:34:41;9.43;;;3.97;;
76854;SDS011;66343;44.588;33.450;2023-06-22T11:39:42;12.27;;;4.78;;
76854;SDS011;66343;44.588;33.450;2023-06-22T11:42:20;8.38;;;4.18;;
76854;SDS011;66343;44.588;33.450;2023-06-22T11:44:55;11.77;;;4.40;;
76854;SDS011;66343;44.588;33.450;2023-06-22T11:47:26;10.63;;;4.10;;
76854;SDS011;66343;44.588;33.450;2023-06-22T11:49:55;8.50;;;4.43;;
76854;SDS011;66343;44.588;33.450;2023-06-22T11:52:24;12.40;;;4.45;;
76854;SDS011;66343;44.588;33.450;2023-06-22T11:54:56;10.10;;;4.22;;
76854;SDS011;66343;44.588;33.450;2023-06-22T11:57:25;9.32;;;4.50;;
76854;SDS011;66343;44.588;33.450;2023-06-22T11:59:56;8.98;;;3.88;;
76854;SDS011;66343;44.588;33.450;2023-06-22T12:02:25;10.40;;;4.60;;
76854;SDS011;66343;44.588;33.450;2023-06-22T12:05:00;9.95;;;4.50;;
76854;SDS011;66343;44.588;33.450;2023-06-22T12:07:38;10.23;;;3.85;;
76854;SDS011;66343;44.588;33.450;2023-06-22T12:10:12;9.05;;;4.00;;
76854;SDS011;66343;44.588;33.450;2023-06-22T12:12:42;8.00;;;3.88;;
76854;SDS011;66343;44.588;33.450;2023-06-22T12:15:11;11.13;;;4.20;;
76854;SDS011;66343;44.588;33.450;2023-06-22T12:17:43;10.50;;;4.43;;
76854;SDS011;66343;44.588;33.450;2023-06-22T12:20:12;6.95;;;3.58;;
76854;SDS011;66343;44.588;33.450;2023-06-22T12:22:42;8.52;;;4.00;;
76854;SDS011;66343;44.588;33.450;2023-06-22T12:25:11;10.27;;;4.43;;
76854;SDS011;66343;44.588;33.450;2023-06-22T12:27:40;9.95;;;3.75;;
76854;SDS011;66343;44.588;33.450;2023-06-22T12:30:10;10.25;;;4.38;;
76854;SDS011;66343;44.588;33.450;2023-06-22T12:32:39;10.45;;;4.65;;
76854;SDS011;66343;44.588;33.450;2023-06-22T12:35:08;11.43;;;4.55;;
76854;SDS011;66343;44.588;33.450;2023-06-22T12:37:42;9.00;;;4.45;;
76854;SDS011;66343;44.588;33.450;2023-06-22T12:40:11;10.98;;;4.50;;
76854;SDS011;66343;44.588;33.450;2023-06-22T12:42:41;10.68;;;4.50;;
76854;SDS011;66343;44.588;33.450;2023-06-22T12:45:11;9.82;;;4.03;;
76854;SDS011;66343;44.588;33.450;2023-06-22T12:47:42;12.68;;;4.40;;
76854;SDS011;66343;44.588;33.450;2023-06-22T12:50:12;10.13;;;4.22;;
76854;SDS011;66343;44.588;33.450;2023-06-22T12:52:41;8.63;;;4.28;;
76854;SDS011;66343;44.588;33.450;2023-06-22T12:55:11;9.95;;;4.35;;
76854;SDS011;66343;44.588;33.450;2023-06-22T12:57:45;8.82;;;4.38;;
76854;SDS011;66343;44.588;33.450;2023-06-22T13:00:15;9.57;;;4.10;;
76854;SDS011;66343;44.588;33.450;2023-06-22T13:02:49;10.27;;;4.40;;
76854;SDS011;66343;44.588;33.450;2023-06-22T13:05:19;10.55;;;4.72;;
76854;SDS011;66343;44.588;33.450;2023-06-22T13:07:48;9.75;;;4.38;;
76854;SDS011;66343;44.588;33.450;2023-06-22T13:10:18;8.35;;;3.58;;
76854;SDS011;66343;44.588;33.450;2023-06-22T13:12:47;8.57;;;3.60;;
76854;SDS011;66343;44.588;33.450;2023-06-22T13:15:17;8.50;;;4.20;;
76854;SDS011;66343;44.588;33.450;2023-06-22T13:17:48;8.43;;;3.63;;
76854;SDS011;66343;44.588;33.450;2023-06-22T13:20:18;11.43;;;4.50;;
76854;SDS011;66343;44.588;33.450;2023-06-22T13:22:51;9.85;;;4.35;;
76854;SDS011;66343;44.588;33.450;2023-06-22T13:25:22;9.52;;;3.92;;
76854;SDS011;66343;44.588;33.450;2023-06-22T13:27:55;9.60;;;4.10;;
76854;SDS011;66343;44.588;33.450;2023-06-22T13:30:27;9.43;;;4.03;;
76854;SDS011;66343;44.588;33.450;2023-06-22T13:32:57;9.60;;;4.00;;
76854;SDS011;66343;44.588;33.450;2023-06-22T13:35:26;10.48;;;4.05;;
76854;SDS011;66343;44.588;33.450;2023-06-22T13:37:56;8.27;;;3.80;;
76854;SDS011;66343;44.588;33.450;2023-06-22T13:40:25;8.27;;;4.25;;
76854;SDS011;66343;44.588;33.450;2023-06-22T13:42:57;9.88;;;4.25;;
76854;SDS011;66343;44.588;33.450;2023-06-22T13:45:26;8.75;;;4.40;;
76854;SDS011;66343;44.588;33.450;2023-06-22T13:47:56;10.00;;;4.20;;
76854;SDS011;66343;44.588;33.450;2023-06-22T13:50:26;7.97;;;4.10;;
76854;SDS011;66343;44.588;33.450;2023-06-22T13:52:58;9.65;;;4.32;;
76854;SDS011;66343;44.588;33.450;2023-06-22T13:55:30;9.63;;;3.88;;
76854;SDS011;66343;44.588;33.450;2023-06-22T13:57:59;7.75;;;4.03;;
76854;SDS011;66343;44.588;33.450;2023-06-22T14:00:29;11.30;;;4.30;;
76854;SDS011;66343;44.588;33.450;2023-06-22T14:03:01;8.50;;;4.10;;
76854;SDS011;66343;44.588;33.450;2023-06-22T14:05:32;9.32;;;4.22;;
76854;SDS011;66343;44.588;33.450;2023-06-22T14:08:02;12.40;;;6.97;;
76854;SDS011;66343;44.588;33.450;2023-06-22T14:10:47;12.63;;;4.70;;
76854;SDS011;66343;44.588;33.450;2023-06-22T14:13:16;10.32;;;4.57;;
76854;SDS011;66343;44.588;33.450;2023-06-22T14:15:48;11.63;;;4.75;;
76854;SDS011;66343;44.588;33.450;2023-06-22T14:18:17;15.70;;;9.23;;
76854;SDS011;66343;44.588;33.450;2023-06-22T14:20:46;9.38;;;4.50;;
76854;SDS011;66343;44.588;33.450;2023-06-22T14:23:16;8.57;;;4.25;;
76854;SDS011;66343;44.588;33.450;2023-06-22T14:25:45;11.25;;;5.07;;
76854;SDS011;66343;44.588;33.450;2023-06-22T14:28:15;9.60;;;4.60;;
76854;SDS011;66343;44.588;33.450;2023-06-22T14:30:50;9.85;;;4.80;;
76854;SDS011;66343;44.588;33.450;2023-06-22T14:33:19;10.13;;;4.32;;
76854;SDS011;66343;44.588;33.450;2023-06-22T14:35:49;9.88;;;4.38;;
76854;SDS011;66343;44.588;33.450;2023-06-22T14:38:23;14.25;;;5.05;;
76854;SDS011;66343;44.588;33.450;2023-06-22T14:40:53;11.23;;;4.25;;
76854;SDS011;66343;44.588;33.450;2023-06-22T14:43:26;8.80;;;4.32;;
76854;SDS011;66343;44.588;33.450;2023-06-22T14:45:55;9.30;;;4.05;;
76854;SDS011;66343;44.588;33.450;2023-06-22T14:48:28;8.48;;;4.50;;
76854;SDS011;66343;44.588;33.450;2023-06-22T14:50:59;10.25;;;4.20;;
76854;SDS011;66343;44.588;33.450;2023-06-22T14:53:29;9.55;;;3.92;;
76854;SDS011;66343;44.588;33.450;2023-06-22T14:56:01;9.40;;;4.20;;
76854;SDS011;66343;44.588;33.450;2023-06-22T14:58:31;10.50;;;3.95;;
76854;SDS011;66343;44.588;33.450;2023-06-22T15:01:04;10.82;;;4.03;;
76854;SDS011;66343;44.588;33.450;2023-06-22T15:03:39;9.57;;;4.10;;
76854;SDS011;66343;44.588;33.450;2023-06-22T15:06:09;10.20;;;4.20;;
76854;SDS011;66343;44.588;33.450;2023-06-22T15:08:39;8.93;;;4.28;;
76854;SDS011;66343;44.588;33.450;2023-06-22T15:11:09;9.38;;;4.25;;